AAY406 KMDT-KPIE
Flight info
| Callsign | AAY406 |
|---|---|
| Flight time | 2h 18m |
| Altitude | 38000 |
| Route | VINNY EMI GVE Q75 TEUFL BAAMF DADES2 |
| Aircraft | B38M/M-SDE1FGHILORVWXY/HB1 |
Departure
| Time | 2026-05-07 22:53 |
|---|---|
| Airport | Harrisburg International Airport (KMDT) |
Arrival
| Time | 2026-05-08 01:11 |
|---|---|
| Airport | St. Petersburg Clearwater International Airport (KPIE) |
| Time | Latitude | Longitude | Altitude | Speed | Heading |
|---|---|---|---|---|---|
| 2026-05-07 22:17 | 40.19551 | -76.75443 | 314 ft | 0 kts | 279° |
| 2026-05-07 22:41 | 40.19550 | -76.75433 | 313 ft | 4 kts | 279° |
| 2026-05-07 22:41 | 40.19546 | -76.75398 | 313 ft | 4 kts | 267° |
| 2026-05-07 22:41 | 40.19553 | -76.75371 | 311 ft | 3 kts | 232° |
| 2026-05-07 22:42 | 40.19573 | -76.75349 | 312 ft | 4 kts | 203° |
| 2026-05-07 22:42 | 40.19598 | -76.75342 | 313 ft | 4 kts | 180° |
| 2026-05-07 22:42 | 40.19625 | -76.75343 | 312 ft | 4 kts | 181° |
| 2026-05-07 22:42 | 40.19635 | -76.75342 | 312 ft | 0 kts | 189° |
| 2026-05-07 22:46 | 40.19626 | -76.75344 | 313 ft | 3 kts | 188° |
| 2026-05-07 22:47 | 40.19599 | -76.75345 | 314 ft | 5 kts | 174° |
| 2026-05-07 22:47 | 40.19558 | -76.75326 | 314 ft | 7 kts | 152° |
| 2026-05-07 22:47 | 40.19505 | -76.75285 | 313 ft | 10 kts | 145° |
| 2026-05-07 22:47 | 40.19442 | -76.75230 | 312 ft | 7 kts | 152° |
| 2026-05-07 22:48 | 40.19395 | -76.75237 | 313 ft | 8 kts | 216° |
| 2026-05-07 22:48 | 40.19354 | -76.75300 | 313 ft | 11 kts | 234° |
| 2026-05-07 22:48 | 40.19303 | -76.75385 | 313 ft | 13 kts | 232° |
| 2026-05-07 22:48 | 40.19237 | -76.75479 | 312 ft | 16 kts | 216° |
| 2026-05-07 22:49 | 40.19143 | -76.75477 | 314 ft | 15 kts | 131° |
| 2026-05-07 22:49 | 40.19089 | -76.75349 | 314 ft | 17 kts | 117° |
| 2026-05-07 22:49 | 40.19032 | -76.75203 | 314 ft | 18 kts | 117° |
| 2026-05-07 22:49 | 40.18976 | -76.75059 | 312 ft | 19 kts | 116° |
| 2026-05-07 22:50 | 40.18919 | -76.74913 | 312 ft | 18 kts | 118° |
| 2026-05-07 22:50 | 40.18859 | -76.74755 | 314 ft | 19 kts | 118° |
| 2026-05-07 22:50 | 40.18814 | -76.74661 | 316 ft | 7 kts | 142° |
| 2026-05-07 22:50 | 40.18802 | -76.74654 | 317 ft | 0 kts | 164° |
| 2026-05-07 22:51 | 40.18801 | -76.74654 | 317 ft | 0 kts | 165° |
| 2026-05-07 22:51 | 40.18796 | -76.74653 | 317 ft | 1 kts | 171° |
| 2026-05-07 22:51 | 40.18782 | -76.74653 | 316 ft | 5 kts | 184° |
| 2026-05-07 22:51 | 40.18733 | -76.74716 | 319 ft | 15 kts | 264° |
| 2026-05-07 22:52 | 40.18768 | -76.74838 | 319 ft | 8 kts | 297° |
| 2026-05-07 22:52 | 40.18771 | -76.74847 | 319 ft | 2 kts | 297° |
| 2026-05-07 22:52 | 40.18846 | -76.75041 | 316 ft | 62 kts | 296° |
| 2026-05-07 22:52 | 40.19155 | -76.75839 | 317 ft | 134 kts | 297° |
| 2026-05-07 22:53 | 40.19668 | -76.77144 | 436 ft | 181 kts | 297° |
| 2026-05-07 22:53 | 40.20273 | -76.78668 | 1053 ft | 194 kts | 297° |
| 2026-05-07 22:53 | 40.20871 | -76.80281 | 1931 ft | 199 kts | 295° |
| 2026-05-07 22:53 | 40.21487 | -76.81937 | 2809 ft | 207 kts | 297° |
| 2026-05-07 22:54 | 40.22146 | -76.83652 | 3706 ft | 218 kts | 296° |
| 2026-05-07 22:54 | 40.22864 | -76.85521 | 4358 ft | 241 kts | 297° |
| 2026-05-07 22:54 | 40.23556 | -76.87573 | 5292 ft | 247 kts | 284° |
| 2026-05-07 22:54 | 40.23597 | -76.89780 | 6492 ft | 248 kts | 258° |
| 2026-05-07 22:55 | 40.22846 | -76.91891 | 7169 ft | 270 kts | 233° |
| 2026-05-07 22:55 | 40.21423 | -76.93538 | 8198 ft | 274 kts | 213° |
| 2026-05-07 22:55 | 40.19733 | -76.94571 | 9648 ft | 264 kts | 206° |
| 2026-05-07 22:55 | 40.17997 | -76.95329 | 10685 ft | 271 kts | 193° |
| 2026-05-07 22:56 | 40.16020 | -76.95209 | 11148 ft | 303 kts | 171° |
| 2026-05-07 22:56 | 40.14000 | -76.94028 | 11691 ft | 331 kts | 150° |
| 2026-05-07 22:56 | 40.12379 | -76.91828 | 12648 ft | 345 kts | 125° |
| 2026-05-07 22:56 | 40.11480 | -76.88844 | 13430 ft | 361 kts | 110° |
| 2026-05-07 22:57 | 40.10750 | -76.85649 | 14052 ft | 371 kts | 114° |
| 2026-05-07 22:57 | 40.09857 | -76.82444 | 14690 ft | 380 kts | 116° |
| 2026-05-07 22:57 | 40.08940 | -76.79204 | 15577 ft | 381 kts | 115° |
| 2026-05-07 22:57 | 40.08026 | -76.75929 | 16304 ft | 389 kts | 116° |
| 2026-05-07 22:58 | 40.06911 | -76.72670 | 16773 ft | 397 kts | 126° |
| 2026-05-07 22:58 | 40.05336 | -76.69803 | 17692 ft | 380 kts | 143° |
| 2026-05-07 22:58 | 40.03332 | -76.67694 | 18318 ft | 374 kts | 158° |
| 2026-05-07 22:58 | 40.01006 | -76.66147 | 18631 ft | 378 kts | 167° |
| 2026-05-07 22:59 | 39.98517 | -76.65094 | 19147 ft | 372 kts | 179° |
| 2026-05-07 22:59 | 39.95968 | -76.64656 | 19717 ft | 372 kts | 182° |
| 2026-05-07 22:59 | 39.93385 | -76.64200 | 20316 ft | 376 kts | 182° |
| 2026-05-07 22:59 | 39.90781 | -76.63723 | 20961 ft | 380 kts | 182° |
| 2026-05-07 23:00 | 39.88151 | -76.63232 | 21578 ft | 383 kts | 182° |
| 2026-05-07 23:00 | 39.85500 | -76.62733 | 22182 ft | 387 kts | 182° |
| 2026-05-07 23:00 | 39.82820 | -76.62227 | 22788 ft | 390 kts | 182° |
| 2026-05-07 23:00 | 39.80121 | -76.61740 | 23370 ft | 391 kts | 185° |
| 2026-05-07 23:01 | 39.77479 | -76.61951 | 23795 ft | 374 kts | 203° |
| 2026-05-07 23:01 | 39.75118 | -76.63177 | 24176 ft | 361 kts | 219° |
| 2026-05-07 23:01 | 39.73140 | -76.65141 | 24581 ft | 357 kts | 228° |
| 2026-05-07 23:01 | 39.71304 | -76.67334 | 25028 ft | 359 kts | 230° |
| 2026-05-07 23:02 | 39.69531 | -76.69618 | 25474 ft | 360 kts | 232° |
| 2026-05-07 23:02 | 39.67790 | -76.71971 | 25936 ft | 362 kts | 233° |
| 2026-05-07 23:02 | 39.66067 | -76.74360 | 26408 ft | 364 kts | 233° |
| 2026-05-07 23:02 | 39.64344 | -76.76778 | 26866 ft | 365 kts | 234° |
| 2026-05-07 23:03 | 39.62624 | -76.79213 | 27342 ft | 367 kts | 234° |
| 2026-05-07 23:03 | 39.60899 | -76.81664 | 27797 ft | 369 kts | 234° |
| 2026-05-07 23:03 | 39.59165 | -76.84131 | 28236 ft | 371 kts | 234° |
| 2026-05-07 23:03 | 39.57443 | -76.86580 | 28666 ft | 373 kts | 234° |
| 2026-05-07 23:04 | 39.55687 | -76.89077 | 29111 ft | 375 kts | 234° |
| 2026-05-07 23:04 | 39.53930 | -76.91573 | 29585 ft | 376 kts | 234° |
| 2026-05-07 23:04 | 39.52163 | -76.94083 | 29976 ft | 378 kts | 234° |
| 2026-05-07 23:04 | 39.50384 | -76.96601 | 30265 ft | 380 kts | 234° |
| 2026-05-07 23:05 | 39.48275 | -76.98770 | 30671 ft | 396 kts | 221° |
| 2026-05-07 23:05 | 39.45951 | -77.00661 | 31084 ft | 394 kts | 223° |
| 2026-05-07 23:05 | 39.43636 | -77.02584 | 31440 ft | 396 kts | 223° |
| 2026-05-07 23:05 | 39.41314 | -77.04489 | 31892 ft | 395 kts | 223° |
| 2026-05-07 23:06 | 39.38994 | -77.06377 | 32335 ft | 394 kts | 223° |
| 2026-05-07 23:06 | 39.36674 | -77.08258 | 32784 ft | 394 kts | 223° |
| 2026-05-07 23:06 | 39.34353 | -77.10137 | 33216 ft | 393 kts | 223° |
| 2026-05-07 23:06 | 39.32037 | -77.12009 | 33641 ft | 392 kts | 223° |
| 2026-05-07 23:07 | 39.29720 | -77.13880 | 33987 ft | 392 kts | 223° |
| 2026-05-07 23:07 | 39.27405 | -77.15747 | 34303 ft | 393 kts | 223° |
| 2026-05-07 23:07 | 39.25087 | -77.17616 | 34632 ft | 393 kts | 223° |
| 2026-05-07 23:07 | 39.22769 | -77.19483 | 34964 ft | 393 kts | 223° |
| 2026-05-07 23:08 | 39.21110 | -77.20819 | 35209 ft | 392 kts | 222° |
| 2026-05-07 23:08 | 39.20243 | -77.21517 | 35328 ft | 392 kts | 222° |
| 2026-05-07 23:08 | 39.17954 | -77.23358 | 35667 ft | 392 kts | 222° |
| 2026-05-07 23:08 | 39.15640 | -77.25218 | 35969 ft | 392 kts | 222° |
| 2026-05-07 23:09 | 39.13351 | -77.27056 | 36263 ft | 392 kts | 222° |
| 2026-05-07 23:09 | 39.11035 | -77.28915 | 36574 ft | 392 kts | 222° |
| 2026-05-07 23:09 | 39.08716 | -77.30775 | 36781 ft | 393 kts | 221° |
| 2026-05-07 23:09 | 39.06427 | -77.32609 | 37020 ft | 394 kts | 221° |
| 2026-05-07 23:10 | 39.04854 | -77.33868 | 37209 ft | 394 kts | 221° |
| 2026-05-07 23:10 | 39.02528 | -77.35729 | 37504 ft | 394 kts | 221° |
| 2026-05-07 23:10 | 39.00200 | -77.37590 | 37778 ft | 394 kts | 221° |
| 2026-05-07 23:10 | 38.97866 | -77.39455 | 37897 ft | 395 kts | 221° |
| 2026-05-07 23:11 | 38.95564 | -77.41293 | 37877 ft | 394 kts | 221° |
| 2026-05-07 23:11 | 38.90922 | -77.44995 | 37877 ft | 393 kts | 221° |
| 2026-05-07 23:12 | 38.86273 | -77.48696 | 37874 ft | 393 kts | 221° |
| 2026-05-07 23:12 | 38.81620 | -77.52395 | 37895 ft | 393 kts | 221° |
| 2026-05-07 23:13 | 38.78972 | -77.54496 | 37893 ft | 393 kts | 221° |
| 2026-05-07 23:13 | 38.74316 | -77.58188 | 37896 ft | 393 kts | 221° |
| 2026-05-07 23:14 | 38.69663 | -77.61873 | 37908 ft | 393 kts | 221° |
| 2026-05-07 23:14 | 38.65012 | -77.65549 | 37917 ft | 393 kts | 221° |
| 2026-05-07 23:15 | 38.60355 | -77.69224 | 37901 ft | 393 kts | 221° |
| 2026-05-07 23:15 | 38.55702 | -77.72891 | 37901 ft | 393 kts | 221° |
| 2026-05-07 23:16 | 38.51048 | -77.76553 | 37912 ft | 393 kts | 221° |
| 2026-05-07 23:16 | 38.46397 | -77.80208 | 37884 ft | 391 kts | 221° |
| 2026-05-07 23:17 | 38.41774 | -77.83833 | 37916 ft | 389 kts | 221° |
| 2026-05-07 23:17 | 38.37191 | -77.87423 | 37913 ft | 389 kts | 221° |
| 2026-05-07 23:18 | 38.32575 | -77.91033 | 37908 ft | 389 kts | 221° |
| 2026-05-07 23:18 | 38.27958 | -77.94638 | 37906 ft | 389 kts | 221° |
| 2026-05-07 23:19 | 38.23355 | -77.98227 | 37909 ft | 385 kts | 223° |
| 2026-05-07 23:19 | 38.18801 | -78.01773 | 37907 ft | 384 kts | 223° |
| 2026-05-07 23:20 | 38.14247 | -78.05313 | 37907 ft | 384 kts | 223° |
| 2026-05-07 23:20 | 38.09692 | -78.08850 | 37905 ft | 384 kts | 223° |
| 2026-05-07 23:21 | 38.05131 | -78.12387 | 37874 ft | 384 kts | 223° |
| 2026-05-07 23:21 | 38.00729 | -78.16030 | 37908 ft | 367 kts | 230° |
| 2026-05-07 23:22 | 37.96656 | -78.20001 | 37908 ft | 370 kts | 228° |
| 2026-05-07 23:22 | 37.92550 | -78.23928 | 37921 ft | 370 kts | 228° |
| 2026-05-07 23:23 | 37.88431 | -78.27849 | 37923 ft | 370 kts | 228° |
| 2026-05-07 23:23 | 37.84338 | -78.31739 | 37918 ft | 370 kts | 228° |
| 2026-05-07 23:24 | 37.80214 | -78.35652 | 37915 ft | 370 kts | 228° |
| 2026-05-07 23:24 | 37.76094 | -78.39555 | 37917 ft | 370 kts | 228° |
| 2026-05-07 23:25 | 37.71969 | -78.43459 | 37913 ft | 370 kts | 228° |
| 2026-05-07 23:25 | 37.67838 | -78.47362 | 37921 ft | 371 kts | 228° |
| 2026-05-07 23:26 | 37.63707 | -78.51259 | 37922 ft | 371 kts | 228° |
| 2026-05-07 23:26 | 37.59722 | -78.55253 | 37906 ft | 357 kts | 234° |
| 2026-05-07 23:27 | 37.53643 | -78.60913 | 37895 ft | 366 kts | 227° |
| 2026-05-07 23:27 | 37.49515 | -78.64653 | 37924 ft | 365 kts | 228° |
| 2026-05-07 23:28 | 37.45439 | -78.68436 | 37943 ft | 364 kts | 229° |
| 2026-05-07 23:28 | 37.41382 | -78.72227 | 37887 ft | 366 kts | 229° |
| 2026-05-07 23:29 | 37.37312 | -78.76032 | 37915 ft | 363 kts | 229° |
| 2026-05-07 23:29 | 37.33265 | -78.79811 | 37915 ft | 362 kts | 229° |
| 2026-05-07 23:30 | 37.29216 | -78.83586 | 37917 ft | 362 kts | 229° |
| 2026-05-07 23:30 | 37.25166 | -78.87358 | 37914 ft | 363 kts | 229° |
| 2026-05-07 23:31 | 37.21105 | -78.91134 | 37918 ft | 363 kts | 229° |
| 2026-05-07 23:31 | 37.17054 | -78.94897 | 37894 ft | 361 kts | 230° |
| 2026-05-07 23:32 | 37.13016 | -78.98645 | 37903 ft | 360 kts | 230° |
| 2026-05-07 23:32 | 37.08988 | -79.02385 | 37916 ft | 361 kts | 230° |
| 2026-05-07 23:33 | 37.04955 | -79.06124 | 37937 ft | 360 kts | 230° |
| 2026-05-07 23:33 | 37.00923 | -79.09859 | 37914 ft | 360 kts | 230° |
| 2026-05-07 23:34 | 36.96918 | -79.13564 | 37857 ft | 360 kts | 230° |
| 2026-05-07 23:34 | 36.92883 | -79.17291 | 37904 ft | 360 kts | 230° |
| 2026-05-07 23:35 | 36.88856 | -79.21006 | 37918 ft | 360 kts | 230° |
| 2026-05-07 23:35 | 36.84827 | -79.24717 | 37909 ft | 360 kts | 230° |
| 2026-05-07 23:36 | 36.80790 | -79.28432 | 37925 ft | 360 kts | 230° |
| 2026-05-07 23:36 | 36.76759 | -79.32135 | 37927 ft | 360 kts | 230° |
| 2026-05-07 23:37 | 36.72723 | -79.35838 | 37906 ft | 361 kts | 230° |
| 2026-05-07 23:37 | 36.68670 | -79.39552 | 37929 ft | 361 kts | 230° |
| 2026-05-07 23:38 | 36.64648 | -79.43233 | 37960 ft | 361 kts | 230° |
| 2026-05-07 23:38 | 36.60596 | -79.46935 | 37930 ft | 361 kts | 230° |
| 2026-05-07 23:39 | 36.56538 | -79.50639 | 37926 ft | 361 kts | 230° |
| 2026-05-07 23:39 | 36.52486 | -79.54332 | 37856 ft | 361 kts | 230° |
| 2026-05-07 23:40 | 36.48429 | -79.58025 | 37912 ft | 362 kts | 230° |
| 2026-05-07 23:40 | 36.44371 | -79.61713 | 37913 ft | 361 kts | 230° |
| 2026-05-07 23:41 | 36.40314 | -79.65396 | 37912 ft | 361 kts | 230° |
| 2026-05-07 23:41 | 36.36255 | -79.69077 | 37938 ft | 361 kts | 230° |
| 2026-05-07 23:42 | 36.32194 | -79.72754 | 37936 ft | 361 kts | 230° |
| 2026-05-07 23:42 | 36.28129 | -79.76431 | 37905 ft | 362 kts | 230° |
| 2026-05-07 23:43 | 36.24079 | -79.80088 | 37923 ft | 363 kts | 230° |
| 2026-05-07 23:43 | 36.20000 | -79.83765 | 37915 ft | 363 kts | 230° |
| 2026-05-07 23:44 | 36.15924 | -79.87436 | 37911 ft | 363 kts | 230° |
| 2026-05-07 23:44 | 36.11836 | -79.91113 | 37918 ft | 363 kts | 230° |
| 2026-05-07 23:45 | 36.07753 | -79.94780 | 37854 ft | 363 kts | 230° |
| 2026-05-07 23:45 | 36.03395 | -79.98135 | 37912 ft | 389 kts | 216° |
| 2026-05-07 23:46 | 35.98391 | -80.00663 | 37912 ft | 389 kts | 218° |
| 2026-05-07 23:46 | 35.93364 | -80.03178 | 37912 ft | 390 kts | 217° |
| 2026-05-07 23:47 | 35.88328 | -80.05669 | 37908 ft | 390 kts | 217° |
| 2026-05-07 23:47 | 35.83295 | -80.08151 | 37869 ft | 390 kts | 217° |
| 2026-05-07 23:48 | 35.78242 | -80.10639 | 37942 ft | 392 kts | 217° |
| 2026-05-07 23:48 | 35.73181 | -80.13128 | 37940 ft | 391 kts | 217° |
| 2026-05-07 23:49 | 35.68119 | -80.15614 | 37939 ft | 392 kts | 217° |
| 2026-05-07 23:49 | 35.63091 | -80.18080 | 37943 ft | 391 kts | 217° |
| 2026-05-07 23:50 | 35.58036 | -80.20556 | 37941 ft | 391 kts | 217° |
| 2026-05-07 23:50 | 35.52981 | -80.23028 | 37943 ft | 391 kts | 217° |
| 2026-05-07 23:51 | 35.47921 | -80.25499 | 37952 ft | 391 kts | 217° |
| 2026-05-07 23:51 | 35.42866 | -80.27965 | 37950 ft | 391 kts | 217° |
| 2026-05-07 23:52 | 35.37808 | -80.30429 | 37946 ft | 391 kts | 217° |
| 2026-05-07 23:52 | 35.32742 | -80.32892 | 37921 ft | 392 kts | 216° |
| 2026-05-07 23:53 | 35.27663 | -80.35360 | 37921 ft | 392 kts | 216° |
| 2026-05-07 23:53 | 35.22598 | -80.37818 | 37913 ft | 392 kts | 216° |
| 2026-05-07 23:54 | 35.17555 | -80.40261 | 37904 ft | 392 kts | 216° |
| 2026-05-07 23:54 | 35.12485 | -80.42714 | 37895 ft | 392 kts | 216° |
| 2026-05-07 23:55 | 35.07425 | -80.45158 | 37899 ft | 390 kts | 216° |
| 2026-05-07 23:55 | 35.03199 | -80.47198 | 37901 ft | 390 kts | 216° |
| 2026-05-07 23:56 | 34.98191 | -80.49612 | 37905 ft | 390 kts | 216° |
| 2026-05-07 23:56 | 34.93146 | -80.52041 | 37899 ft | 390 kts | 216° |
| 2026-05-07 23:57 | 34.88102 | -80.54465 | 37899 ft | 390 kts | 216° |
| 2026-05-07 23:57 | 34.83061 | -80.56885 | 37891 ft | 389 kts | 215° |
| 2026-05-07 23:58 | 34.78033 | -80.59296 | 37879 ft | 388 kts | 215° |
| 2026-05-07 23:58 | 34.73007 | -80.61703 | 37869 ft | 388 kts | 215° |
| 2026-05-07 23:59 | 34.67985 | -80.64106 | 37864 ft | 388 kts | 215° |
| 2026-05-07 23:59 | 34.65527 | -80.65393 | 37842 ft | 375 kts | 224° |
| 2026-05-07 23:59 | 34.63521 | -80.67244 | 37885 ft | 359 kts | 231° |
| 2026-05-08 00:00 | 34.59674 | -80.71181 | 37866 ft | 363 kts | 232° |
| 2026-05-08 00:00 | 34.55888 | -80.75209 | 37853 ft | 361 kts | 232° |
| 2026-05-08 00:01 | 34.52141 | -80.79251 | 37856 ft | 361 kts | 232° |
| 2026-05-08 00:01 | 34.48393 | -80.83305 | 37852 ft | 361 kts | 232° |
| 2026-05-08 00:02 | 34.44642 | -80.87357 | 37879 ft | 361 kts | 232° |
| 2026-05-08 00:02 | 34.40889 | -80.91406 | 37881 ft | 361 kts | 232° |
| 2026-05-08 00:03 | 34.37154 | -80.95433 | 37874 ft | 364 kts | 232° |
| 2026-05-08 00:03 | 34.33340 | -80.99538 | 37891 ft | 365 kts | 232° |
| 2026-05-08 00:04 | 34.31269 | -81.01388 | 37870 ft | 381 kts | 220° |
| 2026-05-08 00:04 | 34.28782 | -81.02595 | 37900 ft | 395 kts | 213° |
| 2026-05-08 00:04 | 34.23558 | -81.04764 | 37891 ft | 398 kts | 212° |
| 2026-05-08 00:05 | 34.18275 | -81.06841 | 37882 ft | 399 kts | 212° |
| 2026-05-08 00:05 | 34.12981 | -81.08882 | 37823 ft | 400 kts | 211° |
| 2026-05-08 00:06 | 34.07661 | -81.10926 | 37877 ft | 401 kts | 211° |
| 2026-05-08 00:06 | 34.02343 | -81.12964 | 37881 ft | 401 kts | 211° |
| 2026-05-08 00:07 | 33.97028 | -81.15000 | 37875 ft | 401 kts | 211° |
| 2026-05-08 00:07 | 33.91705 | -81.17035 | 37880 ft | 401 kts | 211° |
| 2026-05-08 00:08 | 33.86378 | -81.19069 | 37868 ft | 402 kts | 211° |
| 2026-05-08 00:08 | 33.81052 | -81.21101 | 37880 ft | 401 kts | 211° |
| 2026-05-08 00:09 | 33.75726 | -81.23129 | 37878 ft | 402 kts | 211° |
| 2026-05-08 00:09 | 33.70394 | -81.25158 | 37870 ft | 402 kts | 211° |
| 2026-05-08 00:10 | 33.65067 | -81.27181 | 37871 ft | 401 kts | 211° |
| 2026-05-08 00:10 | 33.59729 | -81.29207 | 37885 ft | 404 kts | 211° |
| 2026-05-08 00:11 | 33.54376 | -81.31235 | 37877 ft | 403 kts | 211° |
| 2026-05-08 00:11 | 33.49061 | -81.33246 | 37899 ft | 403 kts | 211° |
| 2026-05-08 00:12 | 33.43711 | -81.35268 | 37907 ft | 403 kts | 211° |
| 2026-05-08 00:12 | 33.38363 | -81.37287 | 37883 ft | 403 kts | 211° |
| 2026-05-08 00:13 | 33.32998 | -81.39309 | 37917 ft | 405 kts | 211° |
| 2026-05-08 00:13 | 33.27647 | -81.41386 | 37914 ft | 401 kts | 213° |
| 2026-05-08 00:14 | 33.22397 | -81.43654 | 37913 ft | 401 kts | 212° |
| 2026-05-08 00:14 | 33.17140 | -81.45900 | 37916 ft | 401 kts | 212° |
| 2026-05-08 00:15 | 33.11878 | -81.48142 | 37905 ft | 401 kts | 212° |
| 2026-05-08 00:15 | 33.06618 | -81.50380 | 37906 ft | 401 kts | 212° |
| 2026-05-08 00:16 | 33.01396 | -81.52599 | 37902 ft | 401 kts | 212° |
| 2026-05-08 00:16 | 32.96131 | -81.54833 | 37902 ft | 401 kts | 212° |
| 2026-05-08 00:17 | 32.90886 | -81.57092 | 37912 ft | 399 kts | 214° |
| 2026-05-08 00:17 | 32.85697 | -81.59455 | 37887 ft | 400 kts | 213° |
| 2026-05-08 00:18 | 32.80476 | -81.61817 | 37927 ft | 402 kts | 213° |
| 2026-05-08 00:18 | 32.75251 | -81.64177 | 37932 ft | 402 kts | 213° |
| 2026-05-08 00:19 | 32.70021 | -81.66535 | 37936 ft | 402 kts | 213° |
| 2026-05-08 00:19 | 32.64805 | -81.68885 | 37933 ft | 401 kts | 213° |
| 2026-05-08 00:20 | 32.59588 | -81.71231 | 37899 ft | 402 kts | 213° |
| 2026-05-08 00:20 | 32.54343 | -81.73589 | 37924 ft | 404 kts | 213° |
| 2026-05-08 00:21 | 32.49090 | -81.75945 | 37924 ft | 404 kts | 213° |
| 2026-05-08 00:21 | 32.43865 | -81.78287 | 37924 ft | 403 kts | 213° |
| 2026-05-08 00:22 | 32.38578 | -81.80654 | 37926 ft | 404 kts | 213° |
| 2026-05-08 00:22 | 32.33353 | -81.82989 | 37897 ft | 405 kts | 212° |
| 2026-05-08 00:23 | 32.28054 | -81.85356 | 37943 ft | 408 kts | 212° |
| 2026-05-08 00:23 | 32.22751 | -81.87720 | 37942 ft | 407 kts | 212° |
| 2026-05-08 00:24 | 32.17449 | -81.90082 | 37944 ft | 407 kts | 212° |
| 2026-05-08 00:24 | 32.12051 | -81.92245 | 37956 ft | 412 kts | 209° |
| 2026-05-08 00:25 | 32.06587 | -81.94293 | 37920 ft | 411 kts | 209° |
| 2026-05-08 00:25 | 32.01162 | -81.96341 | 37946 ft | 412 kts | 209° |
| 2026-05-08 00:26 | 31.95699 | -81.98401 | 37947 ft | 412 kts | 209° |
| 2026-05-08 00:26 | 31.90232 | -82.00462 | 37944 ft | 412 kts | 209° |
| 2026-05-08 00:27 | 31.84637 | -82.02207 | 37951 ft | 422 kts | 203° |
| 2026-05-08 00:27 | 31.78889 | -82.03609 | 37923 ft | 424 kts | 203° |
| 2026-05-08 00:28 | 31.73091 | -82.05076 | 37934 ft | 426 kts | 203° |
| 2026-05-08 00:28 | 31.67301 | -82.06546 | 37943 ft | 426 kts | 204° |
| 2026-05-08 00:29 | 31.61538 | -82.08009 | 37969 ft | 426 kts | 204° |
| 2026-05-08 00:29 | 31.55745 | -82.09478 | 37967 ft | 426 kts | 203° |
| 2026-05-08 00:30 | 31.49932 | -82.10949 | 37960 ft | 429 kts | 203° |
| 2026-05-08 00:30 | 31.44095 | -82.12425 | 37961 ft | 429 kts | 203° |
| 2026-05-08 00:31 | 31.38260 | -82.13899 | 37961 ft | 429 kts | 203° |
| 2026-05-08 00:31 | 31.32423 | -82.15371 | 37955 ft | 429 kts | 203° |
| 2026-05-08 00:32 | 31.26582 | -82.16842 | 37924 ft | 430 kts | 202° |
| 2026-05-08 00:32 | 31.20710 | -82.18320 | 37968 ft | 433 kts | 202° |
| 2026-05-08 00:33 | 31.14860 | -82.19790 | 37971 ft | 432 kts | 202° |
| 2026-05-08 00:33 | 31.08981 | -82.21265 | 37972 ft | 432 kts | 202° |
| 2026-05-08 00:34 | 31.03098 | -82.22739 | 37979 ft | 432 kts | 202° |
| 2026-05-08 00:34 | 30.97210 | -82.24213 | 37977 ft | 434 kts | 202° |
| 2026-05-08 00:35 | 30.91295 | -82.25692 | 37984 ft | 434 kts | 202° |
| 2026-05-08 00:35 | 30.85381 | -82.27168 | 37985 ft | 434 kts | 202° |
| 2026-05-08 00:36 | 30.79472 | -82.28642 | 37997 ft | 435 kts | 202° |
| 2026-05-08 00:36 | 30.73554 | -82.30116 | 37993 ft | 435 kts | 202° |
| 2026-05-08 00:37 | 30.67621 | -82.31576 | 37996 ft | 440 kts | 199° |
| 2026-05-08 00:38 | 30.58437 | -82.32808 | 37990 ft | 445 kts | 196° |
| 2026-05-08 00:38 | 30.52283 | -82.33579 | 37993 ft | 445 kts | 196° |
| 2026-05-08 00:39 | 30.46120 | -82.34347 | 37999 ft | 445 kts | 196° |
| 2026-05-08 00:39 | 30.39965 | -82.35114 | 37999 ft | 445 kts | 196° |
| 2026-05-08 00:40 | 30.33812 | -82.35880 | 37996 ft | 445 kts | 196° |
| 2026-05-08 00:40 | 30.27650 | -82.36646 | 37997 ft | 445 kts | 196° |
| 2026-05-08 00:41 | 30.21486 | -82.37410 | 37994 ft | 445 kts | 196° |
| 2026-05-08 00:41 | 30.15310 | -82.37839 | 37998 ft | 456 kts | 186° |
| 2026-05-08 00:42 | 30.09003 | -82.37496 | 37255 ft | 452 kts | 187° |
| 2026-05-08 00:42 | 30.05850 | -82.37324 | 36449 ft | 455 kts | 187° |
| 2026-05-08 00:42 | 30.02684 | -82.37148 | 35694 ft | 456 kts | 187° |
| 2026-05-08 00:42 | 29.99511 | -82.36972 | 34957 ft | 457 kts | 187° |
| 2026-05-08 00:43 | 29.96323 | -82.36794 | 34238 ft | 458 kts | 187° |
| 2026-05-08 00:43 | 29.93153 | -82.36617 | 33636 ft | 454 kts | 187° |
| 2026-05-08 00:43 | 29.90023 | -82.36442 | 33212 ft | 446 kts | 187° |
| 2026-05-08 00:43 | 29.86949 | -82.36270 | 32803 ft | 444 kts | 187° |
| 2026-05-08 00:44 | 29.83821 | -82.36100 | 32404 ft | 457 kts | 186° |
| 2026-05-08 00:44 | 29.81706 | -82.35982 | 32128 ft | 461 kts | 186° |
| 2026-05-08 00:44 | 29.78496 | -82.35802 | 31696 ft | 464 kts | 186° |
| 2026-05-08 00:44 | 29.75261 | -82.35623 | 31190 ft | 467 kts | 186° |
| 2026-05-08 00:45 | 29.72015 | -82.35442 | 30528 ft | 465 kts | 185° |
| 2026-05-08 00:45 | 29.68789 | -82.35263 | 29776 ft | 463 kts | 185° |
| 2026-05-08 00:45 | 29.65579 | -82.35086 | 29031 ft | 460 kts | 185° |
| 2026-05-08 00:45 | 29.62403 | -82.34910 | 28424 ft | 455 kts | 185° |
| 2026-05-08 00:46 | 29.59253 | -82.34736 | 27770 ft | 450 kts | 185° |
| 2026-05-08 00:46 | 29.56128 | -82.34563 | 27079 ft | 448 kts | 185° |
| 2026-05-08 00:46 | 29.53024 | -82.34392 | 26523 ft | 443 kts | 185° |
| 2026-05-08 00:46 | 29.49951 | -82.34222 | 25931 ft | 440 kts | 185° |
| 2026-05-08 00:47 | 29.46937 | -82.34056 | 25347 ft | 438 kts | 185° |
| 2026-05-08 00:47 | 29.43900 | -82.33889 | 24747 ft | 436 kts | 185° |
| 2026-05-08 00:47 | 29.40879 | -82.33710 | 24137 ft | 436 kts | 182° |
| 2026-05-08 00:47 | 29.37846 | -82.33333 | 23461 ft | 438 kts | 181° |
| 2026-05-08 00:48 | 29.34827 | -82.32956 | 22840 ft | 434 kts | 181° |
| 2026-05-08 00:48 | 29.31830 | -82.32596 | 22245 ft | 430 kts | 181° |
| 2026-05-08 00:48 | 29.28870 | -82.32244 | 21671 ft | 426 kts | 181° |
| 2026-05-08 00:48 | 29.25929 | -82.31897 | 21110 ft | 423 kts | 181° |
| 2026-05-08 00:49 | 29.23010 | -82.31552 | 20554 ft | 420 kts | 181° |
| 2026-05-08 00:49 | 29.20111 | -82.31211 | 19997 ft | 418 kts | 180° |
| 2026-05-08 00:49 | 29.17224 | -82.30871 | 19448 ft | 415 kts | 180° |
| 2026-05-08 00:49 | 29.14393 | -82.30538 | 18906 ft | 414 kts | 180° |
| 2026-05-08 00:50 | 29.11538 | -82.30202 | 18375 ft | 412 kts | 180° |
| 2026-05-08 00:50 | 29.08686 | -82.29866 | 17780 ft | 410 kts | 180° |
| 2026-05-08 00:50 | 29.05861 | -82.29534 | 17241 ft | 406 kts | 180° |
| 2026-05-08 00:50 | 29.03060 | -82.29206 | 16728 ft | 402 kts | 180° |
| 2026-05-08 00:51 | 29.00292 | -82.28880 | 16218 ft | 398 kts | 179° |
| 2026-05-08 00:51 | 28.97547 | -82.28559 | 15703 ft | 396 kts | 179° |
| 2026-05-08 00:51 | 28.94821 | -82.28239 | 15206 ft | 392 kts | 179° |
| 2026-05-08 00:51 | 28.92118 | -82.27922 | 14723 ft | 389 kts | 179° |
| 2026-05-08 00:52 | 28.89438 | -82.27609 | 14244 ft | 386 kts | 179° |
| 2026-05-08 00:52 | 28.86788 | -82.27298 | 13870 ft | 379 kts | 179° |
| 2026-05-08 00:52 | 28.84199 | -82.26996 | 13679 ft | 368 kts | 179° |
| 2026-05-08 00:52 | 28.81693 | -82.26703 | 13511 ft | 356 kts | 179° |
| 2026-05-08 00:53 | 28.79265 | -82.26419 | 13337 ft | 346 kts | 179° |
| 2026-05-08 00:53 | 28.76912 | -82.26144 | 13173 ft | 335 kts | 179° |
| 2026-05-08 00:53 | 28.74632 | -82.25878 | 13089 ft | 323 kts | 179° |
| 2026-05-08 00:53 | 28.72446 | -82.25789 | 13062 ft | 309 kts | 184° |
| 2026-05-08 00:54 | 28.70315 | -82.25764 | 12944 ft | 304 kts | 184° |
| 2026-05-08 00:54 | 28.68192 | -82.25728 | 12542 ft | 305 kts | 183° |
| 2026-05-08 00:54 | 28.66073 | -82.25685 | 12180 ft | 304 kts | 183° |
| 2026-05-08 00:54 | 28.63958 | -82.25641 | 11841 ft | 303 kts | 183° |
| 2026-05-08 00:55 | 28.61853 | -82.25603 | 11475 ft | 303 kts | 183° |
| 2026-05-08 00:55 | 28.59752 | -82.25565 | 11143 ft | 301 kts | 183° |
| 2026-05-08 00:55 | 28.57662 | -82.25526 | 10795 ft | 300 kts | 183° |
| 2026-05-08 00:55 | 28.55577 | -82.25487 | 10465 ft | 299 kts | 183° |
| 2026-05-08 00:56 | 28.53495 | -82.25447 | 10141 ft | 298 kts | 183° |
| 2026-05-08 00:56 | 28.51425 | -82.25417 | 9795 ft | 298 kts | 183° |
| 2026-05-08 00:56 | 28.49386 | -82.25391 | 9460 ft | 296 kts | 183° |
| 2026-05-08 00:56 | 28.47330 | -82.25364 | 9137 ft | 294 kts | 182° |
| 2026-05-08 00:57 | 28.45296 | -82.25337 | 9011 ft | 292 kts | 182° |
| 2026-05-08 00:57 | 28.43264 | -82.25309 | 8926 ft | 291 kts | 182° |
| 2026-05-08 00:57 | 28.41237 | -82.25282 | 8562 ft | 291 kts | 182° |
| 2026-05-08 00:57 | 28.39219 | -82.25255 | 8256 ft | 289 kts | 182° |
| 2026-05-08 00:58 | 28.37212 | -82.25228 | 7939 ft | 288 kts | 181° |
| 2026-05-08 00:58 | 28.35221 | -82.25231 | 7641 ft | 285 kts | 182° |
| 2026-05-08 00:58 | 28.33240 | -82.25253 | 7322 ft | 284 kts | 182° |
| 2026-05-08 00:58 | 28.31324 | -82.25612 | 7001 ft | 278 kts | 207° |
| 2026-05-08 00:59 | 28.29888 | -82.26959 | 6694 ft | 272 kts | 234° |
| 2026-05-08 00:59 | 28.29029 | -82.28859 | 6351 ft | 271 kts | 253° |
| 2026-05-08 00:59 | 28.28608 | -82.30939 | 5999 ft | 270 kts | 258° |
| 2026-05-08 00:59 | 28.28226 | -82.33016 | 5706 ft | 268 kts | 258° |
| 2026-05-08 01:00 | 28.27842 | -82.35076 | 5326 ft | 265 kts | 258° |
| 2026-05-08 01:00 | 28.27468 | -82.37096 | 5070 ft | 256 kts | 258° |
| 2026-05-08 01:00 | 28.27118 | -82.38998 | 5053 ft | 237 kts | 259° |
| 2026-05-08 01:00 | 28.26793 | -82.40770 | 5050 ft | 226 kts | 258° |
| 2026-05-08 01:01 | 28.26469 | -82.42510 | 4862 ft | 226 kts | 258° |
| 2026-05-08 01:01 | 28.26142 | -82.44251 | 4607 ft | 226 kts | 258° |
| 2026-05-08 01:01 | 28.25813 | -82.45987 | 4345 ft | 225 kts | 259° |
| 2026-05-08 01:01 | 28.25483 | -82.47716 | 4102 ft | 223 kts | 258° |
| 2026-05-08 01:02 | 28.25162 | -82.49408 | 4010 ft | 219 kts | 258° |
| 2026-05-08 01:02 | 28.24838 | -82.51102 | 3990 ft | 220 kts | 258° |
| 2026-05-08 01:02 | 28.24514 | -82.52800 | 3988 ft | 220 kts | 259° |
| 2026-05-08 01:02 | 28.24190 | -82.54496 | 3992 ft | 220 kts | 258° |
| 2026-05-08 01:03 | 28.23868 | -82.56179 | 3784 ft | 219 kts | 258° |
| 2026-05-08 01:03 | 28.23544 | -82.57865 | 3549 ft | 217 kts | 258° |
| 2026-05-08 01:03 | 28.23225 | -82.59532 | 3273 ft | 217 kts | 258° |
| 2026-05-08 01:03 | 28.22907 | -82.61190 | 3056 ft | 213 kts | 259° |
| 2026-05-08 01:04 | 28.22592 | -82.62836 | 2999 ft | 214 kts | 259° |
| 2026-05-08 01:04 | 28.22273 | -82.64491 | 2997 ft | 215 kts | 258° |
| 2026-05-08 01:04 | 28.21954 | -82.66152 | 2996 ft | 215 kts | 259° |
| 2026-05-08 01:04 | 28.21635 | -82.67807 | 3016 ft | 214 kts | 259° |
| 2026-05-08 01:05 | 28.21317 | -82.69463 | 3044 ft | 216 kts | 259° |
| 2026-05-08 01:05 | 28.21001 | -82.71101 | 3008 ft | 216 kts | 259° |
| 2026-05-08 01:05 | 28.20412 | -82.72645 | 2951 ft | 218 kts | 230° |
| 2026-05-08 01:05 | 28.19109 | -82.73503 | 2962 ft | 223 kts | 194° |
| 2026-05-08 01:06 | 28.17555 | -82.73461 | 2827 ft | 226 kts | 172° |
| 2026-05-08 01:06 | 28.15996 | -82.73171 | 2612 ft | 227 kts | 173° |
| 2026-05-08 01:06 | 28.14426 | -82.72889 | 2573 ft | 229 kts | 173° |
| 2026-05-08 01:06 | 28.12853 | -82.72615 | 2591 ft | 229 kts | 173° |
| 2026-05-08 01:07 | 28.11294 | -82.72349 | 2595 ft | 220 kts | 173° |
| 2026-05-08 01:07 | 28.09833 | -82.72096 | 2609 ft | 204 kts | 173° |
| 2026-05-08 01:07 | 28.08475 | -82.71862 | 2589 ft | 191 kts | 174° |
| 2026-05-08 01:07 | 28.07173 | -82.71636 | 2596 ft | 188 kts | 174° |
| 2026-05-08 01:08 | 28.05913 | -82.71417 | 2557 ft | 180 kts | 174° |
| 2026-05-08 01:08 | 28.04690 | -82.71206 | 2381 ft | 176 kts | 174° |
| 2026-05-08 01:08 | 28.03489 | -82.70999 | 2162 ft | 174 kts | 174° |
| 2026-05-08 01:08 | 28.02294 | -82.70791 | 1947 ft | 174 kts | 174° |
| 2026-05-08 01:09 | 28.01115 | -82.70588 | 1715 ft | 174 kts | 174° |
| 2026-05-08 01:09 | 27.99922 | -82.70381 | 1497 ft | 173 kts | 174° |
| 2026-05-08 01:09 | 27.98770 | -82.70179 | 1279 ft | 159 kts | 174° |
| 2026-05-08 01:09 | 27.97703 | -82.69996 | 1100 ft | 153 kts | 173° |
| 2026-05-08 01:10 | 27.96659 | -82.69816 | 892 ft | 151 kts | 173° |
| 2026-05-08 01:10 | 27.95621 | -82.69629 | 743 ft | 152 kts | 175° |
| 2026-05-08 01:10 | 27.94588 | -82.69461 | 576 ft | 149 kts | 174° |
| 2026-05-08 01:10 | 27.93599 | -82.69276 | 363 ft | 146 kts | 174° |
| 2026-05-08 01:11 | 27.92602 | -82.69098 | 142 ft | 142 kts | 176° |
| 2026-05-08 01:11 | 27.91637 | -82.68945 | 27 ft | 132 kts | 174° |
| 2026-05-08 01:11 | 27.90878 | -82.68814 | 27 ft | 79 kts | 171° |
| 2026-05-08 01:11 | 27.90544 | -82.68756 | 27 ft | 35 kts | 171° |
| 2026-05-08 01:12 | 27.90413 | -82.68778 | 26 ft | 8 kts | 275° |
| 2026-05-08 01:12 | 27.90420 | -82.68858 | 26 ft | 11 kts | 282° |
| 2026-05-08 01:12 | 27.90459 | -82.68899 | 27 ft | 8 kts | 342° |
| 2026-05-08 01:12 | 27.90548 | -82.68916 | 27 ft | 20 kts | 350° |
| 2026-05-08 01:13 | 27.90644 | -82.68933 | 27 ft | 10 kts | 351° |
| 2026-05-08 01:13 | 27.90721 | -82.68945 | 26 ft | 12 kts | 352° |
| 2026-05-08 01:13 | 27.90758 | -82.68959 | 27 ft | 4 kts | 319° |
| 2026-05-08 01:13 | 27.90760 | -82.69007 | 27 ft | 5 kts | 241° |
| 2026-05-08 01:14 | 27.90741 | -82.69030 | 27 ft | 1 kts | 228° |
| 2026-05-08 01:14 | 27.90738 | -82.69034 | 27 ft | 0 kts | 227° |
| 2026-05-08 01:40 | 27.90737 | -82.69034 | 27 ft | 0 kts | 227° |